Time;durP1;ratioP1;P1;durP2;ratioP2;P2;SDS_P1;SDS_P2;PMS_P1;PMS_P2;Temp;Humidity;BMP_temperature;BMP_pressure;BME280_temperature;BME280_humidity;BME280_pressure;Samples;Min_cycle;Max_cycle;Signal;HPM_P1;HPM_P2
2022/06/16 00:01:36;;;;;;;7.67;6.00;;;16.70;98.50;;;;;;5046960;28;20224;-78
2022/06/16 00:04:03;;;;;;;12.53;6.50;;;16.60;98.50;;;;;;5040992;28;20312;-80
2022/06/16 00:06:31;;;;;;;10.67;6.63;;;16.60;98.80;;;;;;5040816;28;20209;-80
2022/06/16 00:08:57;;;;;;;12.50;6.67;;;16.50;99.10;;;;;;5036724;28;20229;-81
2022/06/16 00:11:24;;;;;;;10.63;6.37;;;16.50;99.20;;;;;;5044510;28;20666;-80
2022/06/16 00:13:52;;;;;;;10.87;7.43;;;16.50;99.30;;;;;;5040509;28;20214;-80
2022/06/16 00:16:20;;;;;;;9.03;6.70;;;16.50;99.50;;;;;;5039913;28;20217;-80
2022/06/16 00:18:48;;;;;;;12.30;6.97;;;16.40;99.60;;;;;;5034764;28;20221;-79
2022/06/16 00:21:16;;;;;;;10.00;5.93;;;16.40;99.70;;;;;;5066140;28;20708;-80
2022/06/16 00:23:44;;;;;;;8.70;6.07;;;16.30;99.70;;;;;;5034937;28;20209;-78
2022/06/16 00:26:14;;;;;;;10.90;6.97;;;16.30;99.90;;;;;;5042214;28;20644;-80
2022/06/16 00:28:41;;;;;;;8.70;6.50;;;16.30;99.90;;;;;;5041125;28;20235;-80
2022/06/16 00:31:10;;;;;;;11.70;6.60;;;16.20;99.90;;;;;;5037298;28;20201;-81
2022/06/16 00:33:37;;;;;;;8.83;6.27;;;16.20;99.90;;;;;;5038854;28;20741;-81
2022/06/16 00:36:05;;;;;;;8.87;6.30;;;16.10;99.90;;;;;;5041211;28;20723;-80
2022/06/16 00:38:32;;;;;;;7.67;6.10;;;16.10;99.90;;;;;;5040410;28;20943;-80
2022/06/16 00:40:59;;;;;;;10.07;6.80;;;16.10;99.90;;;;;;5038811;28;20291;-80
2022/06/16 00:43:27;;;;;;;13.63;6.73;;;16.00;99.90;;;;;;5038632;28;20589;-81
2022/06/16 00:45:56;;;;;;;9.00;6.07;;;16.00;99.90;;;;;;5041968;28;20275;-78
2022/06/16 00:48:32;;;;;;;8.33;6.13;;;15.90;99.90;;;;;;5037839;28;20703;-79
2022/06/16 00:51:11;;;;;;;11.13;6.40;;;15.90;99.90;;;;;;5039731;28;20290;-81
2022/06/16 00:53:40;;;;;;;8.43;6.70;;;15.80;99.90;;;;;;5041679;28;20552;-80
2022/06/16 00:56:10;;;;;;;9.53;6.40;;;15.70;99.90;;;;;;5037914;28;20635;-79
2022/06/16 00:58:40;;;;;;;10.43;7.17;;;15.70;99.90;;;;;;5042329;28;20209;-81
2022/06/16 01:01:09;;;;;;;9.67;6.97;;;15.70;99.90;;;;;;5038704;28;20193;-81
2022/06/16 01:06:25;;;;;;;11.57;7.13;;;15.60;99.90;;;;;;5065493;28;20615;-80
2022/06/16 01:08:57;;;;;;;11.93;6.90;;;15.60;99.90;;;;;;5036889;28;20238;-82
2022/06/16 01:14:38;;;;;;;13.10;7.77;;;15.40;99.90;;;;;;5038433;28;20271;-80
2022/06/16 01:17:23;;;;;;;10.13;7.40;;;15.40;99.90;;;;;;5037267;28;20215;-80
2022/06/16 01:20:06;;;;;;;15.47;8.67;;;15.40;99.90;;;;;;5040210;28;20275;-81
2022/06/16 01:22:46;;;;;;;8.80;7.33;;;15.30;99.90;;;;;;5038616;28;20428;-81
2022/06/16 01:25:40;;;;;;;10.00;7.17;;;15.20;99.90;;;;;;5039928;28;20272;-81
2022/06/16 01:28:25;;;;;;;10.77;7.40;;;15.10;99.90;;;;;;5045592;28;20225;-80
2022/06/16 01:31:03;;;;;;;11.80;7.07;;;15.10;99.90;;;;;;5046947;28;20212;-79
2022/06/16 01:33:55;;;;;;;11.23;7.27;;;15.00;99.90;;;;;;5043551;28;20608;-80
2022/06/16 01:36:32;;;;;;;10.33;7.20;;;15.00;99.90;;;;;;5037193;28;20732;-80
2022/06/16 01:39:06;;;;;;;9.37;7.83;;;14.90;99.90;;;;;;5040909;28;20662;-81
2022/06/16 01:41:40;;;;;;;9.23;7.40;;;14.90;99.90;;;;;;5034592;28;20205;-80
2022/06/16 01:44:41;;;;;;;11.27;7.63;;;14.80;99.90;;;;;;5040374;28;20217;-80
2022/06/16 01:47:15;;;;;;;13.80;8.40;;;14.80;99.90;;;;;;5028210;28;20210;-80
2022/06/16 01:49:54;;;;;;;10.40;7.70;;;14.70;99.90;;;;;;5039027;28;20236;-81
2022/06/16 01:52:27;;;;;;;12.77;8.03;;;14.70;99.90;;;;;;5036790;28;20259;-81
2022/06/16 01:55:00;;;;;;;10.23;7.67;;;14.60;99.90;;;;;;5039103;28;20224;-80
2022/06/16 01:57:42;;;;;;;11.17;8.40;;;14.60;99.90;;;;;;5036898;28;20316;-81
2022/06/16 02:00:14;;;;;;;11.43;8.27;;;14.50;99.90;;;;;;5039182;28;20215;-81
2022/06/16 02:02:43;;;;;;;13.03;8.17;;;14.40;99.90;;;;;;5037372;28;20567;-82
2022/06/16 02:05:22;;;;;;;16.00;8.93;;;14.40;99.90;;;;;;5040222;28;20213;-81
2022/06/16 02:07:58;;;;;;;12.73;8.20;;;14.30;99.90;;;;;;5037327;28;20205;-80
2022/06/16 02:10:29;;;;;;;12.77;8.10;;;14.20;99.90;;;;;;5037839;28;20572;-80
2022/06/16 02:12:58;;;;;;;13.20;9.37;;;14.10;99.90;;;;;;5036882;28;20217;-80
2022/06/16 02:15:38;;;;;;;13.47;8.43;;;14.10;99.90;;;;;;5040666;28;20221;-81
2022/06/16 02:18:08;;;;;;;14.03;9.00;;;14.00;99.90;;;;;;5038617;28;20216;-80
2022/06/16 02:20:58;;;;;;;10.33;8.40;;;14.00;99.90;;;;;;5035886;28;20734;-81
2022/06/16 02:23:26;;;;;;;11.00;8.90;;;13.90;99.90;;;;;;5039350;28;20225;-80
2022/06/16 02:25:55;;;;;;;11.57;8.63;;;13.80;99.90;;;;;;5036202;28;20225;-79
2022/06/16 02:28:22;;;;;;;10.13;8.50;;;13.80;99.90;;;;;;5039299;28;20635;-80
2022/06/16 02:31:09;;;;;;;15.93;9.60;;;13.80;99.90;;;;;;5040432;28;20262;-80
2022/06/16 02:34:04;;;;;;;11.53;8.80;;;13.70;99.90;;;;;;5040717;28;20200;-82
2022/06/16 02:36:49;;;;;;;11.20;8.67;;;13.70;99.90;;;;;;5037483;28;20217;-80
2022/06/16 02:39:37;;;;;;;14.83;9.23;;;13.60;99.90;;;;;;5036442;28;20220;-80
2022/06/16 02:42:29;;;;;;;17.80;9.63;;;13.60;99.90;;;;;;5040404;28;20243;-80
2022/06/16 02:45:22;;;;;;;15.43;10.80;;;13.50;99.90;;;;;;5038749;28;20233;-80
2022/06/16 02:48:11;;;;;;;15.70;9.83;;;13.50;99.90;;;;;;5038162;28;20239;-81
2022/06/16 02:50:59;;;;;;;11.93;9.17;;;13.50;99.90;;;;;;5036411;28;20232;-81
2022/06/16 02:53:35;;;;;;;15.80;10.07;;;13.40;99.90;;;;;;5027129;28;20208;-81
2022/06/16 02:56:14;;;;;;;14.27;9.60;;;13.40;99.90;;;;;;5028362;28;20605;-81
2022/06/16 02:58:43;;;;;;;14.53;9.80;;;13.30;99.90;;;;;;5028489;28;21064;-78
2022/06/16 03:01:10;;;;;;;12.27;9.70;;;13.30;99.90;;;;;;5029065;28;20205;-80
2022/06/16 03:03:38;;;;;;;13.73;9.33;;;13.20;99.90;;;;;;5035183;28;20236;-81
2022/06/16 03:06:06;;;;;;;15.83;10.50;;;13.20;99.90;;;;;;5040605;28;20215;-79
2022/06/16 03:08:43;;;;;;;17.23;10.63;;;13.20;99.90;;;;;;5072682;28;20305;-82
2022/06/16 03:11:11;;;;;;;11.57;8.70;;;13.10;99.90;;;;;;5039254;28;20224;-82
2022/06/16 03:13:38;;;;;;;13.73;9.20;;;13.10;99.90;;;;;;5041211;28;20210;-80
2022/06/16 03:16:05;;;;;;;17.37;9.70;;;13.00;99.90;;;;;;5039615;28;20247;-80
2022/06/16 03:18:32;;;;;;;14.07;9.67;;;13.00;99.90;;;;;;5051730;28;20208;-80
2022/06/16 03:20:59;;;;;;;14.30;9.47;;;13.00;99.90;;;;;;5055854;28;20265;-79
2022/06/16 03:23:26;;;;;;;12.50;8.83;;;13.00;99.90;;;;;;5054725;28;20625;-80
2022/06/16 03:25:53;;;;;;;13.50;8.63;;;13.00;99.90;;;;;;5047898;28;20281;-79
2022/06/16 03:28:20;;;;;;;14.33;10.17;;;13.00;99.90;;;;;;5052657;28;20212;-81
2022/06/16 03:30:47;;;;;;;14.07;9.87;;;13.00;99.90;;;;;;5049364;28;20239;-79
2022/06/16 03:33:14;;;;;;;12.43;9.57;;;13.00;99.90;;;;;;5042387;28;20205;-82
2022/06/16 03:35:41;;;;;;;13.67;9.57;;;13.00;99.90;;;;;;5040338;28;20220;-81
2022/06/16 03:38:16;;;;;;;14.80;9.73;;;13.00;99.90;;;;;;5039837;28;20541;-81
2022/06/16 03:40:42;;;;;;;17.20;10.73;;;12.90;99.90;;;;;;5039879;28;20611;-82
2022/06/16 03:43:10;;;;;;;14.03;9.47;;;12.90;99.90;;;;;;5038537;28;20211;-82
2022/06/16 03:45:37;;;;;;;13.80;10.20;;;12.90;99.90;;;;;;5038940;28;20614;-81
2022/06/16 03:48:05;;;;;;;13.43;10.23;;;12.90;99.90;;;;;;5039703;28;20257;-78
2022/06/16 03:50:32;;;;;;;13.77;9.30;;;12.90;99.90;;;;;;5044144;28;20774;-81
2022/06/16 03:52:59;;;;;;;13.10;9.00;;;13.00;99.90;;;;;;5042555;28;20537;-82
2022/06/16 03:55:26;;;;;;;16.63;9.63;;;13.10;99.90;;;;;;5049891;28;20233;-80
2022/06/16 03:57:53;;;;;;;13.67;8.77;;;13.20;99.90;;;;;;5035642;28;20259;-80
2022/06/16 04:00:21;;;;;;;11.17;8.27;;;13.20;99.90;;;;;;5034275;28;20260;-80
2022/06/16 04:03:59;;;;;;;11.63;8.57;;;13.40;99.90;;;;;;5042661;28;20229;-80
2022/06/16 04:05:40;;;;;;;12.13;9.30;;;13.50;99.90;;;;;;5039867;28;20674;-80
2022/06/16 04:08:09;;;;;;;16.67;8.53;;;13.50;99.90;;;;;;5040214;28;20205;-81
2022/06/16 04:10:36;;;;;;;11.80;8.47;;;13.50;99.90;;;;;;5042874;28;20244;-81
2022/06/16 04:13:03;;;;;;;10.77;8.97;;;13.50;99.90;;;;;;5031130;28;20217;-81
2022/06/16 04:15:30;;;;;;;16.47;8.73;;;13.60;99.90;;;;;;5035127;28;20632;-81
2022/06/16 04:17:57;;;;;;;12.77;8.20;;;13.60;99.90;;;;;;5031195;28;20259;-80
2022/06/16 04:20:24;;;;;;;9.50;7.67;;;13.70;99.90;;;;;;5037098;28;20281;-81
2022/06/16 04:22:54;;;;;;;13.10;8.73;;;13.70;99.90;;;;;;5030597;28;20604;-81
2022/06/16 04:25:30;;;;;;;11.07;8.83;;;13.70;99.90;;;;;;5036832;28;20222;-81
2022/06/16 04:28:03;;;;;;;13.03;8.57;;;13.80;99.90;;;;;;5032483;28;20296;-80
2022/06/16 04:30:30;;;;;;;12.73;8.77;;;13.80;99.90;;;;;;5042701;28;20237;-80
2022/06/16 04:33:00;;;;;;;15.07;9.40;;;13.90;99.90;;;;;;5038134;28;20202;-81
2022/06/16 04:35:27;;;;;;;12.53;8.33;;;13.90;99.90;;;;;;5030675;28;21003;-82
2022/06/16 04:37:55;;;;;;;12.13;8.90;;;14.00;99.90;;;;;;5030261;28;20206;-80
2022/06/16 04:40:22;;;;;;;14.13;8.70;;;14.20;99.90;;;;;;5030675;28;20287;-81
2022/06/16 04:42:49;;;;;;;14.70;9.00;;;14.30;99.90;;;;;;5033170;28;20241;-80
2022/06/16 04:45:16;;;;;;;13.23;8.80;;;14.40;99.90;;;;;;5038820;28;20287;-80
2022/06/16 04:47:43;;;;;;;12.33;8.60;;;14.50;99.90;;;;;;5042276;28;20212;-81
2022/06/16 04:50:13;;;;;;;10.67;8.30;;;14.60;99.90;;;;;;5045156;28;20587;-81
2022/06/16 04:52:40;;;;;;;10.63;7.00;;;14.60;99.90;;;;;;5039029;28;20237;-82
2022/06/16 04:55:08;;;;;;;14.03;9.23;;;14.70;99.90;;;;;;5041870;28;20635;-80
2022/06/16 04:57:35;;;;;;;11.40;8.60;;;14.70;99.90;;;;;;5038791;28;20217;-81
2022/06/16 05:00:04;;;;;;;12.03;8.13;;;14.70;99.90;;;;;;5040388;28;20670;-80
2022/06/16 05:02:51;;;;;;;13.83;8.83;;;14.70;99.90;;;;;;5041753;28;20335;-81
2022/06/16 05:05:18;;;;;;;15.27;8.97;;;14.80;99.90;;;;;;5040782;28;20224;-80
2022/06/16 05:07:45;;;;;;;13.97;8.10;;;14.80;99.90;;;;;;5044226;28;20213;-79
2022/06/16 05:10:12;;;;;;;12.13;8.40;;;14.80;99.90;;;;;;5042321;28;20238;-79
2022/06/16 05:12:40;;;;;;;11.57;8.20;;;14.80;99.90;;;;;;5047763;28;20242;-80
2022/06/16 05:15:07;;;;;;;14.40;8.17;;;14.90;99.90;;;;;;5045846;28;20276;-81
2022/06/16 05:17:35;;;;;;;9.43;8.20;;;14.90;99.90;;;;;;5057070;28;20235;-80
2022/06/16 05:20:03;;;;;;;13.27;7.60;;;14.90;99.90;;;;;;5040654;28;20299;-82
2022/06/16 05:22:30;;;;;;;11.63;9.07;;;15.00;99.90;;;;;;5049947;28;20218;-81
2022/06/16 05:24:56;;;;;;;12.87;7.60;;;15.10;99.90;;;;;;5047990;28;20638;-81
2022/06/16 05:27:23;;;;;;;9.57;7.70;;;15.70;99.90;;;;;;5040492;28;20232;-81
2022/06/16 05:29:50;;;;;;;9.32;6.28;;;16.80;99.90;;;;;;5036036;28;20256;-80
2022/06/16 05:32:17;;;;;;;10.27;6.95;;;18.00;99.90;;;;;;5039033;28;20708;-80
2022/06/16 05:34:45;;;;;;;10.05;6.57;;;19.10;99.90;;;;;;5040225;28;20477;-79
2022/06/16 05:37:11;;;;;;;9.32;5.47;;;20.10;99.90;;;;;;5036509;28;20232;-80
2022/06/16 05:39:39;;;;;;;8.18;5.25;;;21.10;99.90;;;;;;5039720;28;20290;-81
2022/06/16 05:42:08;;;;;;;8.50;5.35;;;;;;;;;;5036059;28;20732;-80
2022/06/16 05:44:37;;;;;;;11.65;5.70;;;23.10;99.90;;;;;;5036519;28;20292;-80
2022/06/16 05:47:05;;;;;;;10.10;5.20;;;23.90;99.90;;;;;;5037415;28;20202;-80
2022/06/16 05:49:38;;;;;;;10.35;5.88;;;24.70;99.90;;;;;;5036460;28;20237;-80
2022/06/16 05:52:20;;;;;;;6.93;5.20;;;25.40;99.90;;;;;;5040462;28;20235;-80
2022/06/16 05:54:48;;;;;;;7.68;5.07;;;25.90;99.90;;;;;;5038729;28;20298;-80
2022/06/16 05:57:14;;;;;;;9.98;5.10;;;26.30;99.90;;;;;;5036495;28;20214;-79
2022/06/16 05:59:41;;;;;;;5.35;4.10;;;26.70;99.40;;;;;;5027686;28;20662;-79
2022/06/16 06:02:15;;;;;;;9.48;4.88;;;27.20;97.20;;;;;;5034631;28;20190;-80
2022/06/16 06:04:43;;;;;;;6.10;4.85;;;27.00;95.10;;;;;;5027951;28;20332;-81
2022/06/16 06:07:10;;;;;;;6.22;5.10;;;26.40;94.60;;;;;;5034259;28;20252;-79
2022/06/16 06:18:17;;;;;;;7.53;4.55;;;26.20;95.30;;;;;;5035758;28;20673;-78
2022/06/16 06:20:44;;;;;;;4.72;3.55;;;26.80;94.50;;;;;;5037747;28;20872;-80
2022/06/16 06:23:12;;;;;;;5.57;3.38;;;27.20;93.70;;;;;;5033604;28;20763;-80
2022/06/16 06:25:39;;;;;;;5.38;3.63;;;27.60;92.80;;;;;;5040151;28;20320;-81
2022/06/16 06:28:06;;;;;;;6.57;3.97;;;27.80;92.40;;;;;;5037599;28;20260;-79
2022/06/16 06:30:34;;;;;;;5.55;3.40;;;28.20;91.80;;;;;;5035999;28;20244;-79
2022/06/16 06:33:02;;;;;;;5.72;3.35;;;28.30;90.80;;;;;;5037640;28;20624;-79
2022/06/16 06:35:28;;;;;;;7.75;3.78;;;28.40;90.60;;;;;;5040729;28;20217;-77
2022/06/16 06:37:55;;;;;;;6.70;4.00;;;28.70;89.90;;;;;;5041270;28;20210;-77
2022/06/16 06:40:29;;;;;;;5.97;3.03;;;28.80;88.30;;;;;;5044955;28;20287;-77
2022/06/16 06:42:56;;;;;;;4.18;2.10;;;28.60;87.80;;;;;;5049215;28;20212;-77
2022/06/16 06:45:23;;;;;;;4.20;2.08;;;28.70;85.80;;;;;;5044490;28;20209;-79
2022/06/16 06:47:51;;;;;;;2.45;1.40;;;28.90;83.60;;;;;;5042026;28;20702;-79
2022/06/16 06:50:19;;;;;;;2.75;1.48;;;29.00;80.90;;;;;;5038961;28;20693;-78
2022/06/16 06:52:46;;;;;;;4.55;1.88;;;28.90;79.10;;;;;;5037508;28;20202;-77
2022/06/16 06:55:13;;;;;;;2.97;1.70;;;28.80;78.80;;;;;;5040755;28;20557;-80
2022/06/16 06:57:40;;;;;;;4.20;1.85;;;29.00;78.80;;;;;;5038162;28;20312;-80
2022/06/16 07:00:09;;;;;;;4.30;1.92;;;29.20;77.90;;;;;;5038433;28;20268;-80
2022/06/16 07:02:35;;;;;;;2.55;1.55;;;29.20;76.90;;;;;;5037292;28;20233;-79
2022/06/16 07:05:03;;;;;;;4.95;2.28;;;29.50;76.30;;;;;;5038924;28;20213;-78
2022/06/16 07:07:32;;;;;;;2.20;1.67;;;29.50;75.30;;;;;;5034260;28;20547;-77
2022/06/16 07:09:59;;;;;;;2.83;1.65;;;29.60;74.80;;;;;;5037425;28;20903;-78
2022/06/16 07:12:26;;;;;;;2.25;1.50;;;29.60;74.30;;;;;;5036580;28;20213;-79
2022/06/16 07:14:53;;;;;;;1.95;1.52;;;29.70;72.90;;;;;;5034952;28;20214;-80
2022/06/16 07:17:23;;;;;;;3.55;1.40;;;29.80;72.00;;;;;;5038441;28;20197;-79
2022/06/16 07:19:51;;;;;;;3.35;1.70;;;29.80;70.10;;;;;;5034962;28;20682;-80
2022/06/16 07:22:18;;;;;;;4.85;2.03;;;29.40;70.90;;;;;;5039509;28;20228;-80
2022/06/16 07:24:48;;;;;;;2.97;1.67;;;29.40;72.60;;;;;;5040840;28;20275;-79
2022/06/16 07:27:18;;;;;;;3.25;1.55;;;29.20;70.40;;;;;;5039419;28;20226;-79
2022/06/16 07:29:49;;;;;;;3.80;1.95;;;29.20;71.30;;;;;;5038805;28;20241;-79
2022/06/16 07:32:20;;;;;;;3.33;1.50;;;29.50;71.00;;;;;;5041246;28;20209;-79
2022/06/16 07:34:48;;;;;;;3.03;1.80;;;29.80;70.70;;;;;;5045665;28;20300;-80
2022/06/16 07:37:15;;;;;;;3.75;1.60;;;29.90;69.10;;;;;;5042325;28;20668;-79
2022/06/16 07:39:42;;;;;;;2.10;0.98;;;29.60;69.00;;;;;;5043526;28;20232;-78
2022/06/16 07:42:10;;;;;;;1.95;1.00;;;29.50;66.80;;;;;;5044926;28;20217;-77
2022/06/16 07:44:37;;;;;;;1.60;0.77;;;29.70;64.70;;;;;;5042263;28;20303;-76
2022/06/16 07:47:05;;;;;;;3.35;1.20;;;30.10;64.00;;;;;;5041787;28;20885;-78
2022/06/16 07:49:33;;;;;;;1.40;0.88;;;30.40;62.30;;;;;;5039464;28;20253;-79
2022/06/16 07:52:00;;;;;;;2.30;1.10;;;30.50;62.50;;;;;;5043104;28;20205;-80
2022/06/16 07:54:28;;;;;;;3.65;1.15;;;30.70;63.30;;;;;;5038443;28;20226;-80
2022/06/16 07:57:15;;;;;;;2.22;1.20;;;30.70;62.30;;;;;;5039550;28;20308;-79
2022/06/16 07:59:53;;;;;;;2.17;1.20;;;30.90;61.90;;;;;;5039612;28;20669;-79
2022/06/16 08:02:20;;;;;;;2.08;1.13;;;31.20;60.00;;;;;;5038011;28;20235;-78
2022/06/16 08:04:48;;;;;;;1.77;1.00;;;30.90;60.40;;;;;;5041681;28;20247;-78
2022/06/16 08:07:14;;;;;;;1.88;1.23;;;30.60;60.50;;;;;;5037602;28;20366;-78
2022/06/16 08:09:41;;;;;;;1.95;1.08;;;30.70;60.40;;;;;;5040724;28;20300;-79
2022/06/16 08:12:10;;;;;;;1.88;1.20;;;30.70;60.80;;;;;;5038774;28;20525;-79
2022/06/16 08:14:41;;;;;;;2.88;1.20;;;30.00;60.00;;;;;;5039796;28;20276;-78
2022/06/16 08:17:15;;;;;;;2.72;1.30;;;29.60;60.70;;;;;;5031046;28;20260;-82
2022/06/16 08:19:42;;;;;;;1.80;1.35;;;29.50;61.00;;;;;;5030650;28;20225;-79
2022/06/16 08:22:12;;;;;;;2.33;1.30;;;29.40;61.50;;;;;;5029795;28;20210;-80
2022/06/16 08:24:40;;;;;;;3.50;1.20;;;29.40;62.00;;;;;;5030133;28;20240;-80
2022/06/16 08:27:08;;;;;;;2.03;1.50;;;29.60;62.20;;;;;;5029910;28;20278;-80
2022/06/16 08:29:39;;;;;;;2.42;1.33;;;29.60;60.50;;;;;;5038002;28;20295;-78
2022/06/16 08:32:08;;;;;;;3.63;1.52;;;29.50;61.30;;;;;;5040595;28;20228;-77
2022/06/16 08:34:37;;;;;;;2.17;1.55;;;29.70;61.50;;;;;;5042034;28;20205;-77
2022/06/16 08:37:04;;;;;;;3.45;1.73;;;29.80;61.10;;;;;;5038738;28;20244;-76
2022/06/16 08:39:35;;;;;;;2.70;1.50;;;30.20;61.00;;;;;;5041344;28;20221;-78
2022/06/16 08:42:15;;;;;;;2.10;1.65;;;30.20;60.00;;;;;;5040780;28;20604;-78
2022/06/16 08:45:01;;;;;;;3.67;1.67;;;30.20;59.90;;;;;;5039438;28;20212;-79
2022/06/16 08:47:38;;;;;;;3.00;1.70;;;29.80;60.30;;;;;;5040622;28;20216;-79
2022/06/16 08:50:30;;;;;;;2.50;1.80;;;29.60;61.30;;;;;;5039441;28;20237;-80
2022/06/16 08:53:23;;;;;;;3.70;1.70;;;29.40;60.70;;;;;;5040413;28;20222;-79
2022/06/16 08:56:14;;;;;;;2.85;1.98;;;29.30;62.40;;;;;;5041127;28;20653;-79
2022/06/16 08:59:03;;;;;;;3.90;2.30;;;29.30;61.20;;;;;;5040021;28;20263;-79
2022/06/16 09:01:59;;;;;;;3.83;1.83;;;29.10;60.80;;;;;;5041949;28;20260;-80
2022/06/16 09:04:39;;;;;;;2.67;2.00;;;29.10;64.80;;;;;;5032112;28;20235;-79
2022/06/16 09:07:38;;;;;;;3.95;1.80;;;29.10;63.20;;;;;;5039892;28;20658;-80
2022/06/16 09:10:17;;;;;;;2.10;1.77;;;29.20;63.60;;;;;;5040391;28;20677;-79
2022/06/16 09:13:15;;;;;;;3.47;2.20;;;29.20;63.10;;;;;;5038736;28;20209;-79
2022/06/16 09:15:42;;;;;;;3.67;2.00;;;29.10;62.00;;;;;;5039783;28;20211;-79
2022/06/16 09:18:18;;;;;;;3.13;1.90;;;28.70;64.40;;;;;;5036982;28;20608;-78
2022/06/16 09:21:19;;;;;;;5.78;2.50;;;28.80;64.90;;;;;;5038490;28;20225;-79
2022/06/16 09:23:59;;;;;;;3.58;2.10;;;28.90;62.80;;;;;;5039444;28;20208;-77
2022/06/16 09:26:48;;;;;;;3.80;2.42;;;29.00;64.70;;;;;;5037533;28;20218;-80
2022/06/16 09:29:36;;;;;;;4.68;2.92;;;29.00;63.80;;;;;;5037490;28;20260;-79
2022/06/16 09:32:10;;;;;;;3.58;2.03;;;29.00;64.80;;;;;;5037157;28;20226;-78
2022/06/16 09:35:07;;;;;;;2.35;2.05;;;28.90;65.50;;;;;;5040265;28;20229;-78
2022/06/16 09:37:59;;;;;;;4.85;1.98;;;29.00;64.20;;;;;;5040563;28;20260;-79
2022/06/16 09:40:43;;;;;;;5.15;2.67;;;28.80;67.00;;;;;;5036386;28;20660;-79
2022/06/16 09:43:32;;;;;;;3.42;2.25;;;28.70;65.70;;;;;;5036305;28;20220;-78
2022/06/16 09:46:18;;;;;;;3.13;2.10;;;28.50;65.20;;;;;;5038414;28;20292;-79
2022/06/16 09:48:59;;;;;;;2.47;2.25;;;28.30;65.20;;;;;;5038348;28;20218;-79
2022/06/16 09:51:52;;;;;;;2.67;1.92;;;28.20;66.30;;;;;;5036496;28;20229;-78
2022/06/16 09:54:31;;;;;;;5.50;2.50;;;28.20;66.90;;;;;;5035730;28;20276;-77
2022/06/16 09:57:10;;;;;;;4.20;2.25;;;28.10;67.00;;;;;;5037425;28;20271;-78
2022/06/16 09:59:53;;;;;;;4.00;2.00;;;28.20;67.60;;;;;;5037571;28;20217;-79
2022/06/16 10:02:25;;;;;;;5.28;2.00;;;28.20;67.60;;;;;;5039288;28;20305;-78
2022/06/16 10:04:54;;;;;;;4.82;2.38;;;28.20;68.30;;;;;;5037688;28;20216;-79
2022/06/16 10:07:44;;;;;;;5.40;2.33;;;28.30;67.50;;;;;;5068778;28;20681;-79
2022/06/16 10:10:35;;;;;;;5.47;2.50;;;28.40;68.00;;;;;;5021698;28;20228;-80
2022/06/16 10:13:08;;;;;;;4.18;2.53;;;28.60;67.00;;;;;;5038556;28;20268;-80
2022/06/16 10:15:49;;;;;;;4.95;2.65;;;28.60;66.60;;;;;;5036652;28;20321;-79
2022/06/16 10:18:17;;;;;;;4.30;2.17;;;28.80;66.90;;;;;;5038692;28;20274;-78
2022/06/16 10:20:45;;;;;;;5.07;2.58;;;28.80;67.10;;;;;;5041358;28;20206;-79
2022/06/16 10:23:25;;;;;;;4.03;1.80;;;28.70;66.30;;;;;;5036205;28;20221;-78
2022/06/16 10:25:57;;;;;;;4.38;2.30;;;28.70;66.30;;;;;;5036742;28;20295;-79
2022/06/16 10:28:48;;;;;;;4.85;2.70;;;28.50;66.60;;;;;;5035772;28;20209;-78
2022/06/16 10:31:33;;;;;;;5.88;2.72;;;28.50;66.00;;;;;;5035321;28;20237;-78
2022/06/16 10:34:01;;;;;;;4.28;2.17;;;28.50;65.50;;;;;;5036741;28;20198;-78
2022/06/16 10:36:30;;;;;;;4.95;2.22;;;28.50;66.10;;;;;;5027323;28;20700;-79
2022/06/16 10:39:16;;;;;;;4.10;2.40;;;28.60;66.60;;;;;;5027210;28;20210;-79
2022/06/16 10:41:58;;;;;;;5.32;2.45;;;28.70;66.10;;;;;;5027530;28;20240;-79
2022/06/16 10:44:27;;;;;;;4.57;2.67;;;28.60;66.40;;;;;;5035491;28;20209;-79
2022/06/16 10:46:59;;;;;;;4.03;2.97;;;28.60;66.20;;;;;;5033577;28;20259;-79
2022/06/16 10:49:31;;;;;;;3.05;2.50;;;28.50;66.20;;;;;;5035612;28;20241;-79
2022/06/16 10:52:11;;;;;;;2.63;2.30;;;28.50;66.30;;;;;;5035742;28;20232;-80
2022/06/16 10:54:45;;;;;;;4.63;2.55;;;28.50;66.80;;;;;;5035325;28;20284;-79
2022/06/16 10:57:24;;;;;;;4.95;3.00;;;28.50;67.50;;;;;;5038392;28;20594;-79
2022/06/16 11:00:02;;;;;;;5.47;2.58;;;28.40;66.80;;;;;;5040233;28;20211;-79
2022/06/16 11:02:33;;;;;;;4.28;2.67;;;28.40;66.40;;;;;;5038176;28;20287;-79
2022/06/16 11:05:05;;;;;;;3.92;2.47;;;28.30;67.80;;;;;;5042400;28;20625;-79
2022/06/16 11:07:37;;;;;;;5.07;2.55;;;28.20;69.40;;;;;;5041986;28;20216;-78
2022/06/16 11:10:08;;;;;;;4.03;2.35;;;28.20;67.90;;;;;;5037311;28;20225;-79
2022/06/16 11:12:40;;;;;;;4.50;2.88;;;28.00;68.00;;;;;;5041652;28;20686;-79
2022/06/16 11:15:25;;;;;;;4.05;2.80;;;27.90;69.00;;;;;;5041188;28;20732;-79
2022/06/16 11:17:59;;;;;;;6.38;3.25;;;27.90;68.40;;;;;;5038462;28;20260;-79
2022/06/16 11:20:43;;;;;;;5.68;2.90;;;27.90;68.40;;;;;;5042159;28;20628;-78
2022/06/16 11:23:22;;;;;;;4.95;2.95;;;27.90;68.10;;;;;;5038747;28;20271;-79
2022/06/16 11:26:09;;;;;;;3.28;2.40;;;28.10;69.00;;;;;;5039281;28;20217;-79
2022/06/16 11:28:54;;;;;;;7.25;2.75;;;28.00;70.40;;;;;;5031402;28;20220;-77
2022/06/16 11:31:48;;;;;;;3.85;2.95;;;28.10;70.40;;;;;;5038393;28;20236;-79
2022/06/16 11:34:23;;;;;;;5.93;3.08;;;28.10;69.30;;;;;;5043234;28;20214;-78
2022/06/16 11:37:08;;;;;;;4.18;3.10;;;28.10;69.30;;;;;;5044887;28;20217;-78
2022/06/16 11:40:04;;;;;;;5.30;3.00;;;28.10;69.30;;;;;;5041581;28;20716;-77
2022/06/16 11:42:57;;;;;;;6.72;2.85;;;28.10;68.40;;;;;;5042612;28;20197;-79
2022/06/16 11:45:42;;;;;;;5.70;2.85;;;28.10;70.80;;;;;;5042607;28;20257;-77
2022/06/16 11:48:26;;;;;;;6.57;3.58;;;28.10;71.00;;;;;;5040150;28;20217;-81
2022/06/16 11:51:41;;;;;;;5.15;2.90;;;28.10;69.40;;;;;;5030982;28;20242;-84
2022/06/16 11:54:17;;;;;;;4.88;2.97;;;28.10;70.40;;;;;;5028511;28;20229;-85
2022/06/16 11:56:55;;;;;;;4.72;3.13;;;28.00;69.50;;;;;;5031277;28;20569;-82
2022/06/16 11:59:45;;;;;;;5.75;3.80;;;28.20;70.70;;;;;;5030987;28;20297;-82
2022/06/16 12:02:28;;;;;;;4.65;3.10;;;28.20;68.50;;;;;;5073113;28;20228;-83
2022/06/16 12:05:27;;;;;;;3.78;2.78;;;28.30;70.50;;;;;;5041424;28;20643;-82
2022/06/16 12:08:16;;;;;;;4.75;2.70;;;28.40;70.10;;;;;;5067323;28;20209;-83
2022/06/16 12:10:50;;;;;;;4.30;3.05;;;28.50;69.40;;;;;;5041313;28;20217;-84
2022/06/16 12:13:35;;;;;;;7.53;2.90;;;28.50;68.10;;;;;;5040143;28;20213;-84
2022/06/16 12:16:31;;;;;;;3.35;3.05;;;28.60;69.20;;;;;;5034930;28;20206;-86
2022/06/16 12:19:01;;;;;;;4.75;2.97;;;28.70;69.70;;;;;;5039073;28;20213;-84
2022/06/16 12:21:32;;;;;;;4.65;3.53;;;28.70;70.10;;;;;;5039900;28;20243;-84
2022/06/16 12:24:26;;;;;;;3.38;2.60;;;28.80;69.60;;;;;;5045926;28;20267;-84
2022/06/16 12:27:04;;;;;;;5.00;2.88;;;28.70;69.40;;;;;;5042392;28;20274;-85
2022/06/16 12:29:48;;;;;;;5.63;3.05;;;28.60;68.90;;;;;;5038160;28;20214;-87
2022/06/16 12:32:39;;;;;;;8.75;2.90;;;28.40;69.10;;;;;;5038095;28;20251;-87
2022/06/16 12:35:22;;;;;;;5.43;2.90;;;28.40;69.30;;;;;;5039824;28;20252;-86
2022/06/16 12:38:13;;;;;;;4.60;3.20;;;28.30;71.40;;;;;;5030434;28;20677;-87
2022/06/16 12:40:55;;;;;;;3.78;3.10;;;28.30;70.60;;;;;;5029901;28;20232;-86
2022/06/16 12:43:25;;;;;;;5.22;2.97;;;28.20;71.40;;;;;;5033516;28;20286;-85
2022/06/16 12:46:02;;;;;;;3.65;3.30;;;28.10;71.00;;;;;;5029517;28;20300;-84
2022/06/16 12:48:44;;;;;;;7.13;3.17;;;28.00;70.80;;;;;;5030243;28;20717;-87
2022/06/16 12:51:15;;;;;;;3.97;3.03;;;28.00;70.70;;;;;;5030012;28;20280;-86
2022/06/16 12:53:49;;;;;;;5.53;3.25;;;28.20;70.50;;;;;;5030214;28;20209;-87
2022/06/16 12:56:28;;;;;;;6.68;3.65;;;28.30;70.60;;;;;;5029173;28;20556;-86
2022/06/16 12:59:19;;;;;;;4.30;3.13;;;28.50;70.20;;;;;;5039592;28;20220;-85
2022/06/16 13:01:51;;;;;;;5.30;3.20;;;28.70;71.70;;;;;;5044716;28;20201;-86
2022/06/16 13:04:31;;;;;;;3.97;3.08;;;28.60;70.60;;;;;;5037129;28;20257;-85
2022/06/16 13:07:05;;;;;;;8.60;4.00;;;28.40;70.20;;;;;;5039077;28;20217;-85
2022/06/16 13:09:33;;;;;;;4.35;3.35;;;28.30;70.00;;;;;;5037675;28;20217;-85
2022/06/16 13:12:05;;;;;;;4.45;3.30;;;28.20;70.50;;;;;;5041342;28;20325;-87
2022/06/16 13:14:34;;;;;;;5.93;3.58;;;28.30;70.30;;;;;;5038690;28;20205;-87
2022/06/16 13:17:07;;;;;;;4.32;2.75;;;28.50;70.80;;;;;;5040350;28;20213;-87
2022/06/16 13:19:55;;;;;;;7.00;3.25;;;28.80;70.60;;;;;;5041812;28;20209;-87
2022/06/16 13:22:34;;;;;;;3.92;2.72;;;29.30;69.90;;;;;;5029189;28;20220;-88
2022/06/16 13:25:08;;;;;;;5.15;3.05;;;29.70;69.40;;;;;;5035283;28;20279;-87
2022/06/16 13:27:53;;;;;;;3.92;3.33;;;29.70;67.60;;;;;;5033154;28;20205;-87
2022/06/16 13:30:37;;;;;;;4.22;2.78;;;29.50;67.40;;;;;;5029606;28;20206;-87
2022/06/16 13:33:07;;;;;;;3.38;3.08;;;29.10;67.70;;;;;;5035864;28;20700;-87
2022/06/16 13:35:40;;;;;;;4.40;3.05;;;28.80;67.60;;;;;;5040946;28;20213;-87